createdAt,value
2018-02-18T00:00:05.977Z,83.11
2018-02-18T00:02:34.261Z,83.14
2018-02-18T00:05:02.569Z,83.12
2018-02-18T00:07:30.899Z,83.29
2018-02-18T00:09:59.902Z,83.25
2018-02-18T00:12:28.259Z,83.29
2018-02-18T00:14:57.308Z,83.40
2018-02-18T00:17:25.577Z,83.69
2018-02-18T00:19:55.383Z,83.81
2018-02-18T00:22:23.666Z,83.83
2018-02-18T00:24:52.023Z,83.75
2018-02-18T00:27:20.357Z,83.78
2018-02-18T00:29:49.506Z,83.97
2018-02-18T00:32:17.793Z,83.97
2018-02-18T00:34:46.850Z,84.13
2018-02-18T00:37:15.143Z,84.31
2018-02-18T00:39:43.446Z,84.56
2018-02-18T00:42:11.725Z,84.59
2018-02-18T00:44:40.001Z,84.71
2018-02-18T00:47:08.272Z,84.84
2018-02-18T00:49:36.555Z,84.85
2018-02-18T00:52:04.822Z,85.00
2018-02-18T00:54:33.123Z,85.10
2018-02-18T00:57:02.174Z,85.31
2018-02-18T00:59:30.449Z,85.15
2018-02-18T01:01:58.768Z,85.02
2018-02-18T01:04:27.812Z,85.08
2018-02-18T01:06:56.115Z,85.26
2018-02-18T01:09:24.396Z,85.16
2018-02-18T01:11:52.716Z,84.95
2018-02-18T01:14:21.000Z,84.91
2018-02-18T01:16:49.280Z,85.04
2018-02-18T01:19:17.561Z,85.02
2018-02-18T01:21:45.847Z,85.05
2018-02-18T01:24:14.144Z,85.08
2018-02-18T01:26:42.495Z,85.22
2018-02-18T01:29:10.769Z,85.15
2018-02-18T01:31:39.057Z,85.15
2018-02-18T01:34:07.340Z,85.18
2018-02-18T01:36:35.659Z,85.42
2018-02-18T01:39:04.716Z,85.50
2018-02-18T01:41:32.987Z,85.46
2018-02-18T01:44:01.275Z,85.55
2018-02-18T01:46:29.567Z,85.55
2018-02-18T01:48:57.879Z,85.57
2018-02-18T01:51:26.200Z,85.49
2018-02-18T01:53:55.272Z,85.54
2018-02-18T01:56:23.564Z,85.46
2018-02-18T01:58:51.851Z,85.27
2018-02-18T02:01:20.153Z,85.35
2018-02-18T02:03:49.201Z,85.20
2018-02-18T02:06:17.492Z,85.26
2018-02-18T02:08:45.804Z,85.38
2018-02-18T02:11:14.852Z,85.29
2018-02-18T02:13:43.160Z,85.47
2018-02-18T02:16:11.469Z,85.61
2018-02-18T02:18:39.774Z,85.71
2018-02-18T02:21:08.072Z,85.94
2018-02-18T02:23:36.401Z,86.40
2018-02-18T02:26:04.686Z,86.92
2018-02-18T02:28:32.979Z,87.15
2018-02-18T02:31:01.273Z,87.36
2018-02-18T02:33:29.609Z,87.48
2018-02-18T02:35:57.893Z,87.04
2018-02-18T02:38:26.196Z,86.89
2018-02-18T02:40:54.527Z,86.97
2018-02-18T02:43:23.589Z,87.15
2018-02-18T02:45:51.863Z,87.41
2018-02-18T02:48:20.157Z,87.49
2018-02-18T02:50:49.225Z,87.56
2018-02-18T02:53:17.517Z,87.32
2018-02-18T02:55:45.820Z,86.93
2018-02-18T02:58:14.863Z,87.14
2018-02-18T03:00:43.187Z,87.29
2018-02-18T03:03:12.244Z,87.48
2018-02-18T03:05:40.557Z,87.43
2018-02-18T03:08:09.623Z,87.20
2018-02-18T03:10:37.986Z,87.29
2018-02-18T03:13:06.315Z,87.33
2018-02-18T03:15:35.376Z,87.17
2018-02-18T03:18:03.655Z,87.00
2018-02-18T03:20:31.944Z,87.11
2018-02-18T03:23:00.997Z,86.89
2018-02-18T03:25:29.313Z,87.15
2018-02-18T03:27:58.370Z,87.20
2018-02-18T03:30:26.706Z,87.39
2018-02-18T03:32:55.004Z,87.44
2018-02-18T03:35:23.294Z,87.58
2018-02-18T03:37:51.592Z,87.57
2018-02-18T03:40:19.854Z,87.56
2018-02-18T03:42:48.128Z,87.55
2018-02-18T03:45:16.396Z,87.62
2018-02-18T03:47:44.693Z,87.54
2018-02-18T03:50:12.973Z,87.46
2018-02-18T03:52:41.253Z,87.43
2018-02-18T03:55:09.551Z,87.43
2018-02-18T03:57:38.624Z,87.55
2018-02-18T04:00:06.915Z,87.70
2018-02-18T04:02:35.194Z,87.99
2018-02-18T04:05:04.238Z,88.03
2018-02-18T04:07:32.520Z,88.21
2018-02-18T04:10:00.857Z,88.18
2018-02-18T04:12:29.181Z,88.18
2018-02-18T04:14:57.460Z,88.32
2018-02-18T04:17:25.754Z,88.54
2018-02-18T04:19:54.028Z,88.47
2018-02-18T04:22:22.332Z,88.62
2018-02-18T04:24:51.409Z,88.78
2018-02-18T04:27:19.720Z,88.76
2018-02-18T04:29:48.030Z,88.80
2018-02-18T04:32:16.339Z,88.99
2018-02-18T04:34:44.670Z,88.63
2018-02-18T04:37:12.951Z,88.74
2018-02-18T04:39:41.251Z,88.67
2018-02-18T04:42:09.526Z,88.79
2018-02-18T04:44:37.835Z,88.67
2018-02-18T04:47:06.913Z,89.02
2018-02-18T04:49:35.203Z,88.89
2018-02-18T04:52:04.274Z,89.22
2018-02-18T04:54:32.608Z,89.33
2018-02-18T04:57:00.893Z,89.59
2018-02-18T04:59:29.192Z,89.73
2018-02-18T05:01:57.507Z,89.68
2018-02-18T05:04:26.559Z,89.43
2018-02-18T05:06:54.895Z,88.95
2018-02-18T05:09:23.266Z,88.83
2018-02-18T05:11:51.573Z,89.62
2018-02-18T05:14:19.851Z,90.02
2018-02-18T05:16:48.160Z,89.94
2018-02-18T05:19:16.445Z,90.00
2018-02-18T05:21:44.754Z,90.00
2018-02-18T05:24:13.062Z,89.84
2018-02-18T05:26:41.395Z,89.82
2018-02-18T05:29:10.494Z,89.56
2018-02-18T05:31:39.551Z,89.25
2018-02-18T05:34:07.854Z,89.72
2018-02-18T05:36:37.738Z,90.28
2018-02-18T05:39:06.084Z,90.43
2018-02-18T05:41:34.408Z,90.21
2018-02-18T05:44:02.690Z,90.15
2018-02-18T05:46:30.986Z,89.62
2018-02-18T05:49:00.092Z,89.75
2018-02-18T05:51:28.383Z,90.32
2018-02-18T05:53:56.696Z,90.49
2018-02-18T05:56:25.028Z,90.27
2018-02-18T05:58:53.341Z,90.51
2018-02-18T06:01:21.652Z,91.19
2018-02-18T06:03:49.980Z,91.62
2018-02-18T06:06:18.296Z,91.77
2018-02-18T06:08:47.402Z,91.54
2018-02-18T06:11:16.480Z,91.97
2018-02-18T06:13:44.819Z,92.06
2018-02-18T06:16:13.129Z,92.09
2018-02-18T06:18:41.438Z,92.76
2018-02-18T06:21:09.752Z,92.39
2018-02-18T06:23:38.076Z,92.43
2018-02-18T06:26:07.140Z,92.58
2018-02-18T06:28:35.482Z,92.54
2018-02-18T06:31:03.768Z,92.21
2018-02-18T06:33:32.064Z,91.88
2018-02-18T06:36:00.380Z,91.68
2018-02-18T06:38:28.690Z,91.60
2018-02-18T06:40:56.990Z,91.13
2018-02-18T06:43:25.341Z,90.85
2018-02-18T06:45:53.616Z,91.00
2018-02-18T06:48:21.923Z,90.98
2018-02-18T06:50:50.286Z,90.22
2018-02-18T06:53:18.597Z,90.41
2018-02-18T06:55:46.921Z,90.46
2018-02-18T06:58:15.207Z,90.85
2018-02-18T07:00:43.552Z,90.71
2018-02-18T07:03:12.663Z,91.06
2018-02-18T07:05:41.037Z,90.72
2018-02-18T07:08:10.182Z,90.46
2018-02-18T07:10:38.522Z,90.45
2018-02-18T07:13:06.856Z,90.84
2018-02-18T07:15:35.137Z,91.23
2018-02-18T07:18:03.451Z,90.85
2018-02-18T07:20:31.778Z,90.03
2018-02-18T07:23:00.087Z,89.41
2018-02-18T07:25:29.194Z,89.67
2018-02-18T07:27:57.596Z,89.04
2018-02-18T07:30:25.885Z,89.28
2018-02-18T07:32:54.193Z,90.08
2018-02-18T07:35:22.490Z,90.39
2018-02-18T07:37:51.585Z,89.84
2018-02-18T07:40:20.644Z,89.05
2018-02-18T07:42:48.956Z,88.66
2018-02-18T07:45:18.009Z,88.94
2018-02-18T07:47:46.329Z,88.56
2018-02-18T07:50:15.387Z,88.74
2018-02-18T07:52:43.729Z,88.50
2018-02-18T07:55:12.101Z,88.53
2018-02-18T07:57:40.362Z,88.09
2018-02-18T08:00:08.639Z,87.78
2018-02-18T08:02:37.066Z,87.71
2018-02-18T08:05:05.399Z,87.31
2018-02-18T08:07:33.750Z,87.03
2018-02-18T08:10:02.129Z,86.34
2018-02-18T08:12:31.221Z,86.38
2018-02-18T08:14:59.554Z,85.94
2018-02-18T08:17:27.871Z,85.47
2018-02-18T08:19:56.198Z,85.23
2018-02-18T08:22:24.595Z,84.55
2018-02-18T08:24:52.884Z,84.20
2018-02-18T08:27:21.236Z,83.67
2018-02-18T08:29:49.541Z,82.86
2018-02-18T08:32:17.925Z,84.52
2018-02-18T08:34:46.227Z,83.45
2018-02-18T08:37:15.304Z,83.43
2018-02-18T08:39:43.648Z,81.83
2018-02-18T08:42:11.965Z,81.76
2018-02-18T08:44:40.300Z,81.62
2018-02-18T08:47:08.608Z,82.02
2018-02-18T08:49:36.897Z,81.58
2018-02-18T08:52:05.953Z,81.39
2018-02-18T08:54:34.272Z,81.03
2018-02-18T08:57:03.324Z,81.50
2018-02-18T08:59:31.650Z,80.67
2018-02-18T09:02:00.727Z,80.57
2018-02-18T09:04:29.033Z,80.37
2018-02-18T09:06:57.353Z,80.23
2018-02-18T09:09:25.777Z,80.69
2018-02-18T09:11:54.878Z,80.48
2018-02-18T09:14:23.941Z,79.97
2018-02-18T09:16:52.239Z,79.09
2018-02-18T09:19:21.313Z,78.58
2018-02-18T09:21:49.602Z,77.63
2018-02-18T09:24:18.638Z,77.79
2018-02-18T09:26:46.954Z,77.87
2018-02-18T09:29:15.189Z,78.34
2018-02-18T09:31:43.483Z,78.61
2018-02-18T09:34:11.728Z,77.40
2018-02-18T09:36:40.768Z,76.54
2018-02-18T09:39:09.023Z,76.33
2018-02-18T09:41:37.325Z,76.10
2018-02-18T09:44:05.627Z,76.21
2018-02-18T09:46:33.942Z,75.07
2018-02-18T09:49:02.257Z,74.66
2018-02-18T09:51:30.586Z,73.66
2018-02-18T09:53:58.859Z,74.92
2018-02-18T09:56:27.143Z,73.82
2018-02-18T09:58:55.434Z,74.18
2018-02-18T10:01:23.725Z,73.41
2018-02-18T10:03:51.999Z,72.72
2018-02-18T10:06:20.244Z,72.30
2018-02-18T10:08:48.498Z,72.91
2018-02-18T10:11:17.501Z,72.76
2018-02-18T10:13:45.760Z,72.55
2018-02-18T10:16:14.774Z,72.17
2018-02-18T10:18:43.032Z,71.93
2018-02-18T10:21:12.045Z,72.45
2018-02-18T10:23:40.309Z,72.31
2018-02-18T10:26:08.563Z,70.69
2018-02-18T10:28:37.593Z,70.97
2018-02-18T10:31:05.878Z,70.07
2018-02-18T10:33:34.204Z,70.10
2018-02-18T10:36:02.445Z,67.70
2018-02-18T10:38:31.419Z,68.63
2018-02-18T10:40:59.729Z,68.53
2018-02-18T10:43:28.829Z,67.92
2018-02-18T10:45:57.180Z,67.62
2018-02-18T10:48:25.479Z,67.96
2018-02-18T10:50:53.776Z,66.95
2018-02-18T10:53:22.836Z,67.74
2018-02-18T10:55:51.079Z,65.86
2018-02-18T10:58:19.336Z,65.33
2018-02-18T11:00:48.360Z,66.22
2018-02-18T11:03:16.603Z,65.40
2018-02-18T11:05:52.348Z,65.32
2018-02-18T11:08:21.408Z,65.60
2018-02-18T11:10:49.672Z,62.63
2018-02-18T11:13:17.966Z,61.77
2018-02-18T11:15:46.321Z,56.36
2018-02-18T11:18:14.580Z,53.77
2018-02-18T11:20:42.839Z,53.12
2018-02-18T11:23:11.860Z,51.52
2018-02-18T11:25:40.102Z,51.18
2018-02-18T11:28:09.114Z,54.14
2018-02-18T11:30:37.364Z,48.95
2018-02-18T11:33:05.599Z,49.88
2018-02-18T11:35:33.850Z,47.31
2018-02-18T11:38:02.091Z,46.31
2018-02-18T11:40:30.337Z,47.22
2018-02-18T11:42:58.582Z,48.89
2018-02-18T11:45:26.829Z,51.13
2018-02-18T11:47:55.837Z,48.99
2018-02-18T11:50:24.116Z,46.03
2018-02-18T11:52:53.093Z,44.72
2018-02-18T11:55:21.334Z,47.03
2018-02-18T11:57:49.583Z,52.10
2018-02-18T12:00:17.823Z,53.66
2018-02-18T12:02:46.064Z,48.66
2018-02-18T12:05:14.302Z,48.82
2018-02-18T12:07:42.554Z,49.66
2018-02-18T12:10:10.794Z,50.35
2018-02-18T12:12:39.037Z,49.18
2018-02-18T12:15:07.282Z,46.89
2018-02-18T12:17:35.529Z,44.71
2018-02-18T12:20:04.552Z,47.23
2018-02-18T12:22:32.793Z,48.23
2018-02-18T12:25:01.030Z,51.80
2018-02-18T12:27:29.276Z,50.19
2018-02-18T12:29:57.520Z,52.99
2018-02-18T12:32:26.541Z,55.79
2018-02-18T12:34:54.780Z,56.52
2018-02-18T12:37:23.023Z,55.57
2018-02-18T12:39:51.266Z,59.03
2018-02-18T12:42:19.510Z,59.24
2018-02-18T12:44:47.758Z,59.16
2018-02-18T12:47:16.004Z,60.38
2018-02-18T12:49:44.256Z,61.77
2018-02-18T12:52:13.265Z,62.38
2018-02-18T12:54:41.523Z,62.58
2018-02-18T12:57:10.522Z,61.95
2018-02-18T12:59:38.773Z,62.39
2018-02-18T13:02:07.779Z,62.62
2018-02-18T13:04:36.788Z,63.10
2018-02-18T13:07:05.056Z,63.13
2018-02-18T13:09:34.053Z,63.55
2018-02-18T13:12:02.298Z,62.69
2018-02-18T13:14:30.552Z,61.11
2018-02-18T13:16:58.791Z,59.54
2018-02-18T13:19:27.034Z,55.04
2018-02-18T13:21:56.040Z,53.09
2018-02-18T13:24:25.050Z,52.20
2018-02-18T13:26:53.318Z,54.19
2018-02-18T13:29:21.536Z,58.49
2018-02-18T13:31:49.774Z,60.53
2018-02-18T13:34:18.038Z,62.47
2018-02-18T13:36:46.285Z,63.07
2018-02-18T13:39:15.290Z,64.49
2018-02-18T13:41:44.309Z,64.56
2018-02-18T13:44:12.548Z,64.96
2018-02-18T13:46:40.880Z,60.11
2018-02-18T13:49:09.121Z,58.03
2018-02-18T13:51:38.138Z,55.10
2018-02-18T13:54:06.382Z,52.81
2018-02-18T13:56:35.393Z,53.21
2018-02-18T13:59:03.633Z,54.92
2018-02-18T14:01:31.885Z,53.00
2018-02-18T14:04:00.208Z,52.32
2018-02-18T14:06:29.235Z,49.31
2018-02-18T14:08:57.615Z,50.90
2018-02-18T14:11:25.857Z,52.18
2018-02-18T14:13:54.862Z,54.01
2018-02-18T14:16:23.218Z,51.95
2018-02-18T14:18:52.232Z,56.15
2018-02-18T14:21:20.473Z,57.48
2018-02-18T14:23:48.718Z,58.40
2018-02-18T14:26:16.968Z,58.00
2018-02-18T14:28:45.206Z,56.58
2018-02-18T14:31:14.224Z,57.33
2018-02-18T14:33:42.469Z,57.94
2018-02-18T14:36:10.727Z,57.54
2018-02-18T14:38:38.961Z,55.72
2018-02-18T14:41:07.214Z,52.74
2018-02-18T14:43:53.369Z,49.28
2018-02-18T14:46:39.463Z,46.34
2018-02-18T14:49:25.543Z,44.57
2018-02-18T14:55:37.514Z,50.35
2018-02-18T14:58:06.529Z,50.16
2018-02-18T15:00:34.762Z,51.67
2018-02-18T15:03:03.015Z,53.79
2018-02-18T15:05:31.254Z,57.38
2018-02-18T15:07:59.529Z,58.68
2018-02-18T15:10:29.570Z,55.09
2018-02-18T15:12:58.654Z,58.21
2018-02-18T15:15:26.966Z,57.54
2018-02-18T15:17:55.392Z,53.28
2018-02-18T15:20:23.690Z,53.34
2018-02-18T15:22:52.018Z,51.71
2018-02-18T15:25:21.110Z,52.47
2018-02-18T15:27:49.424Z,53.73
2018-02-18T15:30:17.705Z,54.32
2018-02-18T15:32:46.006Z,54.38
2018-02-18T15:35:14.308Z,55.34
2018-02-18T15:37:42.587Z,55.02
2018-02-18T15:40:10.885Z,55.67
2018-02-18T15:42:39.182Z,58.06
2018-02-18T15:45:07.466Z,61.08
2018-02-18T15:47:35.718Z,62.23
2018-02-18T15:50:04.743Z,63.33
2018-02-18T15:52:32.991Z,64.06
2018-02-18T15:55:01.260Z,64.81
2018-02-18T15:57:29.521Z,64.84
2018-02-18T15:59:58.563Z,65.42
2018-02-18T16:02:26.822Z,66.47
2018-02-18T16:04:55.082Z,67.12
2018-02-18T16:07:23.387Z,68.19
2018-02-18T16:09:51.665Z,69.11
2018-02-18T16:12:19.931Z,69.78
2018-02-18T16:14:48.198Z,70.00
2018-02-18T16:17:16.457Z,70.22
2018-02-18T16:19:44.726Z,70.51
2018-02-18T16:22:13.751Z,71.30
2018-02-18T16:24:42.021Z,71.72
2018-02-18T16:27:10.284Z,71.70
2018-02-18T16:29:38.550Z,72.10
2018-02-18T16:32:06.816Z,72.47
2018-02-18T16:34:35.865Z,72.67
2018-02-18T16:37:04.151Z,73.12
2018-02-18T16:39:32.401Z,73.17
2018-02-18T16:42:00.667Z,73.37
2018-02-18T16:44:28.929Z,73.49
2018-02-18T16:46:57.198Z,73.74
2018-02-18T16:49:25.777Z,73.80
2018-02-18T16:51:54.077Z,73.81
2018-02-18T16:54:22.369Z,73.83
2018-02-18T16:56:50.615Z,74.20
2018-02-18T16:59:18.886Z,74.63
2018-02-18T17:01:47.161Z,74.98
2018-02-18T17:04:15.424Z,74.82
2018-02-18T17:06:44.469Z,74.73
2018-02-18T17:09:12.765Z,75.21
2018-02-18T17:11:41.099Z,75.04
2018-02-18T17:14:09.367Z,75.54
2018-02-18T17:16:37.637Z,75.48
2018-02-18T17:19:05.915Z,75.60
2018-02-18T17:21:34.265Z,75.71
2018-02-18T17:24:02.589Z,75.84
2018-02-18T17:26:30.898Z,76.07
2018-02-18T17:28:59.853Z,76.56
2018-02-18T17:31:28.186Z,76.41
2018-02-18T17:33:56.479Z,76.89
2018-02-18T17:36:25.559Z,76.55
2018-02-18T17:38:53.956Z,77.00
2018-02-18T17:41:22.267Z,77.31
2018-02-18T17:43:50.553Z,77.34
2018-02-18T17:46:18.854Z,77.30
2018-02-18T17:48:47.159Z,77.41
2018-02-18T17:51:16.215Z,77.76
2018-02-18T17:53:44.526Z,77.33
2018-02-18T17:56:13.661Z,78.27
2018-02-18T17:58:41.966Z,78.50
2018-02-18T18:01:10.240Z,78.64
2018-02-18T18:03:38.581Z,78.66
2018-02-18T18:06:06.938Z,78.96
2018-02-18T18:08:36.046Z,79.14
2018-02-18T18:11:04.357Z,79.23
2018-02-18T18:13:32.646Z,79.63
2018-02-18T18:16:01.010Z,80.00
2018-02-18T18:18:41.743Z,79.85
2018-02-18T18:21:10.080Z,80.12
2018-02-18T18:23:38.442Z,80.21
2018-02-18T18:26:06.793Z,80.50
2018-02-18T18:28:35.119Z,80.52
2018-02-18T18:31:03.434Z,80.29
2018-02-18T18:33:31.764Z,80.43
2018-02-18T18:36:00.111Z,80.66
2018-02-18T18:38:28.389Z,81.36
2018-02-18T18:40:56.667Z,81.71
2018-02-18T18:43:25.343Z,81.79
2018-02-18T18:45:54.079Z,81.94
2018-02-18T18:48:22.471Z,82.04
2018-02-18T18:50:51.643Z,82.35
2018-02-18T18:53:19.975Z,82.85
2018-02-18T18:55:48.328Z,83.07
2018-02-18T18:58:17.363Z,83.29
2018-02-18T19:00:45.633Z,83.03
2018-02-18T19:03:13.889Z,83.07
2018-02-18T19:05:42.213Z,83.14
2018-02-18T19:08:11.370Z,83.02
2018-02-18T19:10:39.628Z,82.81
2018-02-18T19:13:08.108Z,82.74
2018-02-18T19:15:36.400Z,82.61
2018-02-18T19:18:04.671Z,82.88
2018-02-18T19:20:33.052Z,83.09
2018-02-18T19:23:01.372Z,83.28
2018-02-18T19:25:29.623Z,83.57
2018-02-18T19:27:57.868Z,83.34
2018-02-18T19:30:26.131Z,83.38
2018-02-18T19:32:55.151Z,83.60
2018-02-18T19:35:23.411Z,83.78
2018-02-18T19:37:52.421Z,83.86
2018-02-18T19:40:20.681Z,83.65
2018-02-18T19:42:48.945Z,83.71
2018-02-18T19:45:17.979Z,83.53
2018-02-18T19:47:46.229Z,83.39
2018-02-18T19:50:14.490Z,83.38
2018-02-18T19:52:43.507Z,83.22
2018-02-18T19:55:11.784Z,82.93
2018-02-18T19:57:40.037Z,83.07
2018-02-18T20:00:09.078Z,83.53
2018-02-18T20:02:37.339Z,83.66
2018-02-18T20:05:05.610Z,83.76
2018-02-18T20:07:33.872Z,83.85
2018-02-18T20:10:02.140Z,83.69
2018-02-18T20:12:31.217Z,83.66
2018-02-18T20:14:59.471Z,83.82
2018-02-18T20:17:27.734Z,83.97
2018-02-18T20:19:55.991Z,84.36
2018-02-18T20:22:24.262Z,84.23
2018-02-18T20:24:52.526Z,84.54
2018-02-18T20:27:20.821Z,84.69
2018-02-18T20:29:49.829Z,84.75
2018-02-18T20:32:18.092Z,85.05
2018-02-18T20:34:46.367Z,85.10
2018-02-18T20:37:14.636Z,85.08
2018-02-18T20:39:42.940Z,85.06
2018-02-18T20:42:11.202Z,85.02
2018-02-18T20:44:39.470Z,85.22
2018-02-18T20:47:07.796Z,84.99
2018-02-18T20:49:36.842Z,85.03
2018-02-18T20:52:05.119Z,84.92
2018-02-18T20:54:33.376Z,85.21
2018-02-18T20:57:01.632Z,85.23
2018-02-18T20:59:30.660Z,85.55
2018-02-18T21:01:58.920Z,85.60
2018-02-18T21:04:27.188Z,85.29
2018-02-18T21:06:56.209Z,85.21
2018-02-18T21:09:24.472Z,85.57
2018-02-18T21:11:52.777Z,85.52
2018-02-18T21:14:21.040Z,85.63
2018-02-18T21:16:49.325Z,85.71
2018-02-18T21:19:17.583Z,85.80
2018-02-18T21:21:45.830Z,85.81
2018-02-18T21:24:14.891Z,85.84
2018-02-18T21:26:43.155Z,86.14
2018-02-18T21:29:11.420Z,86.62
2018-02-18T21:31:39.684Z,87.48
2018-02-18T21:34:07.940Z,87.84
2018-02-18T21:36:36.405Z,87.87
2018-02-18T21:39:05.472Z,87.77
2018-02-18T21:41:33.761Z,87.47
2018-02-18T21:44:02.036Z,87.56
2018-02-18T21:46:30.302Z,87.77
2018-02-18T21:48:58.567Z,87.82
2018-02-18T21:51:26.852Z,87.74
2018-02-18T21:53:55.129Z,87.82
2018-02-18T21:56:23.404Z,87.92
2018-02-18T21:58:51.685Z,88.02
2018-02-18T22:01:19.961Z,88.11
2018-02-18T22:03:48.256Z,88.11
2018-02-18T22:06:17.317Z,88.33
2018-02-18T22:08:45.621Z,88.26
2018-02-18T22:11:16.466Z,88.17
2018-02-18T22:13:45.560Z,88.05
2018-02-18T22:16:14.625Z,88.26
2018-02-18T22:18:42.902Z,88.50
2018-02-18T22:21:11.205Z,88.54
2018-02-18T22:23:40.271Z,88.38
2018-02-18T22:26:08.552Z,88.68
2018-02-18T22:28:36.856Z,88.55
2018-02-18T22:31:05.909Z,88.41
2018-02-18T22:33:34.715Z,88.09
2018-02-18T22:36:03.003Z,88.43
2018-02-18T22:38:32.071Z,89.21
2018-02-18T22:41:00.345Z,89.36
2018-02-18T22:43:28.617Z,88.98
2018-02-18T22:45:56.912Z,88.63
2018-02-18T22:48:25.182Z,88.81
2018-02-18T22:50:53.483Z,88.97
2018-02-18T22:53:22.566Z,89.06
2018-02-18T22:55:50.860Z,89.16
2018-02-18T22:58:19.899Z,89.17
2018-02-18T23:00:48.185Z,89.14
2018-02-18T23:03:16.468Z,89.23
2018-02-18T23:05:50.321Z,89.66
2018-02-18T23:08:18.628Z,89.83
2018-02-18T23:10:46.956Z,89.86
2018-02-18T23:13:16.022Z,90.05
2018-02-18T23:15:45.072Z,89.95
2018-02-18T23:18:13.361Z,90.17
2018-02-18T23:20:59.454Z,90.29
2018-02-18T23:23:27.724Z,89.77
2018-02-18T23:25:56.001Z,90.14
2018-02-18T23:28:24.287Z,89.92
2018-02-18T23:30:52.575Z,89.76
2018-02-18T23:33:20.831Z,90.41
2018-02-18T23:35:49.200Z,90.54
2018-02-18T23:38:17.475Z,90.43
2018-02-18T23:40:45.745Z,90.21
2018-02-18T23:43:14.022Z,89.83
2018-02-18T23:45:43.125Z,89.94
2018-02-18T23:48:11.495Z,90.66
2018-02-18T23:50:40.645Z,90.66
2018-02-18T23:53:08.990Z,90.94
2018-02-18T23:55:37.329Z,91.80
2018-02-18T23:58:06.410Z,92.05
